createdAt,value
2019-03-23T00:00:27.355Z,1009.21
2019-03-23T00:01:27.377Z,1009.23
2019-03-23T00:02:27.397Z,1009.26
2019-03-23T00:03:27.421Z,1009.28
2019-03-23T00:04:27.442Z,1009.26
2019-03-23T00:05:27.463Z,1009.28
2019-03-23T00:06:30.906Z,1009.24
2019-03-23T00:07:27.506Z,1009.28
2019-03-23T00:08:27.529Z,1009.3
2019-03-23T00:09:27.551Z,1009.29
2019-03-23T00:10:27.572Z,1009.3
2019-03-23T00:11:27.597Z,1009.29
2019-03-23T00:12:27.616Z,1009.28
2019-03-23T00:13:27.636Z,1009.23
2019-03-23T00:14:27.658Z,1009.27
2019-03-23T00:15:27.682Z,1009.31
2019-03-23T00:16:27.701Z,1009.3
2019-03-23T00:17:27.724Z,1009.27
2019-03-23T00:18:27.745Z,1009.28
2019-03-23T00:19:27.770Z,1009.29
2019-03-23T00:20:27.787Z,1009.29
2019-03-23T00:21:27.808Z,1009.29
2019-03-23T00:22:27.832Z,1009.26
2019-03-23T00:23:27.869Z,1009.3
2019-03-23T00:24:27.876Z,1009.28
2019-03-23T00:25:27.896Z,1009.33
2019-03-23T00:26:27.917Z,1009.3
2019-03-23T00:27:27.936Z,1009.34
2019-03-23T00:28:27.960Z,1009.32
2019-03-23T00:29:27.985Z,1009.32
2019-03-23T00:30:28.004Z,1009.29
2019-03-23T00:31:28.024Z,1009.29
2019-03-23T00:32:28.046Z,1009.28
2019-03-23T00:33:28.067Z,1009.33
2019-03-23T00:34:28.089Z,1009.26
2019-03-23T00:35:28.110Z,1009.27
2019-03-23T00:36:28.131Z,1009.3
2019-03-23T00:37:28.154Z,1009.28
2019-03-23T00:38:28.175Z,1009.31
2019-03-23T00:39:28.195Z,1009.3
2019-03-23T00:40:28.219Z,1009.33
2019-03-23T00:41:28.243Z,1009.31
2019-03-23T00:42:28.259Z,1009.29
2019-03-23T00:43:28.281Z,1009.27
2019-03-23T00:44:28.303Z,1009.29
2019-03-23T00:45:28.324Z,1009.3
2019-03-23T00:46:28.346Z,1009.27
2019-03-23T00:47:28.367Z,1009.25
2019-03-23T00:48:28.388Z,1009.25
2019-03-23T00:49:28.409Z,1009.2
2019-03-23T00:50:28.432Z,1009.25
2019-03-23T00:51:28.453Z,1009.2
2019-03-23T00:52:28.474Z,1009.18
2019-03-23T00:53:28.495Z,1009.16
2019-03-23T00:54:28.515Z,1009.15
2019-03-23T00:55:28.538Z,1009.15
2019-03-23T00:56:28.561Z,1009.16
2019-03-23T00:57:28.580Z,1009.13
2019-03-23T00:58:28.601Z,1009.13
2019-03-23T00:59:28.622Z,1009.11
2019-03-23T01:00:28.649Z,1009.13
2019-03-23T01:01:28.664Z,1009.1
2019-03-23T01:02:28.685Z,1009.11
2019-03-23T01:03:28.708Z,1009.13
2019-03-23T01:04:28.727Z,1009.14
2019-03-23T01:05:28.758Z,1009.12
2019-03-23T01:06:28.770Z,1009.15
2019-03-23T01:07:28.791Z,1009.17
2019-03-23T01:08:28.814Z,1009.15
2019-03-23T01:09:28.835Z,1009.15
2019-03-23T01:10:28.856Z,1009.12
2019-03-23T01:11:28.878Z,1009.17
2019-03-23T01:12:28.901Z,1009.13
2019-03-23T01:13:28.920Z,1009.16
2019-03-23T01:14:28.943Z,1009.15
2019-03-23T01:15:28.962Z,1009.13
2019-03-23T01:16:28.983Z,1009.17
2019-03-23T01:17:29.004Z,1009.18
2019-03-23T01:18:29.024Z,1009.16
2019-03-23T01:19:29.046Z,1009.14
2019-03-23T01:20:29.071Z,1009.19
2019-03-23T01:21:29.090Z,1009.18
2019-03-23T01:22:29.108Z,1009.16
2019-03-23T01:23:29.131Z,1009.18
2019-03-23T01:24:29.155Z,1009.19
2019-03-23T01:25:29.174Z,1009.19
2019-03-23T01:26:29.201Z,1009.15
2019-03-23T01:27:29.216Z,1009.12
2019-03-23T01:28:29.236Z,1009.15
2019-03-23T01:29:29.255Z,1009.13
2019-03-23T01:30:29.277Z,1009.14
2019-03-23T01:31:29.299Z,1009.15
2019-03-23T01:32:29.321Z,1009.17
2019-03-23T01:33:29.341Z,1009.13
2019-03-23T01:34:29.362Z,1009.16
2019-03-23T01:35:29.382Z,1009.14
2019-03-23T01:36:29.405Z,1009.12
2019-03-23T01:37:29.425Z,1009.13
2019-03-23T01:38:29.446Z,1009.1
2019-03-23T01:39:29.466Z,1009.1
2019-03-23T01:40:29.486Z,1009.15
2019-03-23T01:41:29.511Z,1009.19
2019-03-23T01:42:29.530Z,1009.18
2019-03-23T01:43:29.550Z,1009.2
2019-03-23T01:44:29.571Z,1009.2
2019-03-23T01:45:29.593Z,1009.22
2019-03-23T01:46:29.613Z,1009.25
2019-03-23T01:47:29.635Z,1009.29
2019-03-23T01:48:29.655Z,1009.32
2019-03-23T01:49:29.678Z,1009.31
2019-03-23T01:50:29.697Z,1009.33
2019-03-23T01:51:29.716Z,1009.3
2019-03-23T01:52:29.738Z,1009.33
2019-03-23T01:53:29.759Z,1009.33
2019-03-23T01:54:29.780Z,1009.34
2019-03-23T01:55:29.800Z,1009.33
2019-03-23T01:56:29.820Z,1009.36
2019-03-23T01:57:29.844Z,1009.36
2019-03-23T01:58:29.864Z,1009.4
2019-03-23T01:59:29.883Z,1009.36
2019-03-23T02:00:29.906Z,1009.33
2019-03-23T02:01:29.926Z,1009.33
2019-03-23T02:02:29.946Z,1009.34
2019-03-23T02:03:29.967Z,1009.35
2019-03-23T02:04:29.988Z,1009.33
2019-03-23T02:05:30.009Z,1009.34
2019-03-23T02:06:30.028Z,1009.31
2019-03-23T02:07:30.050Z,1009.36
2019-03-23T02:08:30.071Z,1009.37
2019-03-23T02:09:30.092Z,1009.35
2019-03-23T02:10:30.113Z,1009.33
2019-03-23T02:11:30.176Z,1009.35
2019-03-23T02:12:30.155Z,1009.36
2019-03-23T02:13:30.176Z,1009.35
2019-03-23T02:14:30.198Z,1009.36
2019-03-23T02:15:30.215Z,1009.36
2019-03-23T02:16:30.245Z,1009.41
2019-03-23T02:17:30.258Z,1009.38
2019-03-23T02:18:30.278Z,1009.36
2019-03-23T02:19:30.298Z,1009.36
2019-03-23T02:20:30.320Z,1009.36
2019-03-23T02:21:30.340Z,1009.36
2019-03-23T02:22:30.363Z,1009.33
2019-03-23T02:23:30.382Z,1009.31
2019-03-23T02:24:30.403Z,1009.36
2019-03-23T02:25:30.423Z,1009.34
2019-03-23T02:26:30.443Z,1009.33
2019-03-23T02:27:30.465Z,1009.35
2019-03-23T02:28:30.485Z,1009.36
2019-03-23T02:29:30.505Z,1009.35
2019-03-23T02:30:30.528Z,1009.35
2019-03-23T02:31:30.548Z,1009.36
2019-03-23T02:32:30.568Z,1009.38
2019-03-23T02:33:30.589Z,1009.36
2019-03-23T02:34:30.612Z,1009.34
2019-03-23T02:35:30.628Z,1009.33
2019-03-23T02:36:30.649Z,1009.36
2019-03-23T02:37:30.670Z,1009.32
2019-03-23T02:38:30.694Z,1009.36
2019-03-23T02:39:30.712Z,1009.38
2019-03-23T02:40:30.733Z,1009.37
2019-03-23T02:41:30.756Z,1009.36
2019-03-23T02:42:30.774Z,1009.34
2019-03-23T02:43:30.793Z,1009.38
2019-03-23T02:44:30.828Z,1009.37
2019-03-23T02:45:30.858Z,1009.35
2019-03-23T02:46:30.856Z,1009.33
2019-03-23T02:47:30.878Z,1009.36
2019-03-23T02:48:30.897Z,1009.38
2019-03-23T02:49:30.925Z,1009.36
2019-03-23T02:50:30.937Z,1009.38
2019-03-23T02:51:30.959Z,1009.42
2019-03-23T02:52:30.979Z,1009.42
2019-03-23T02:53:30.999Z,1009.42
2019-03-23T02:54:31.020Z,1009.45
2019-03-23T02:55:31.042Z,1009.46
2019-03-23T02:56:31.063Z,1009.49
2019-03-23T02:57:31.087Z,1009.49
2019-03-23T02:58:31.101Z,1009.5
2019-03-23T02:59:31.123Z,1009.47
2019-03-23T03:00:31.142Z,1009.49
2019-03-23T03:01:31.163Z,1009.48
2019-03-23T03:02:31.183Z,1009.5
2019-03-23T03:03:31.204Z,1009.52
2019-03-23T03:04:31.223Z,1009.47
2019-03-23T03:05:31.243Z,1009.54
2019-03-23T03:06:31.273Z,1009.5
2019-03-23T03:07:41.605Z,1009.53
2019-03-23T03:08:31.309Z,1009.54
2019-03-23T03:09:31.326Z,1009.5
2019-03-23T03:10:31.348Z,1009.5
2019-03-23T03:11:31.367Z,1009.47
2019-03-23T03:12:31.392Z,1009.51
2019-03-23T03:13:31.407Z,1009.53
2019-03-23T03:14:31.429Z,1009.54
2019-03-23T03:15:31.469Z,1009.54
2019-03-23T03:16:31.470Z,1009.57
2019-03-23T03:17:31.489Z,1009.55
2019-03-23T03:18:31.510Z,1009.55
2019-03-23T03:19:31.529Z,1009.57
2019-03-23T03:20:31.550Z,1009.57
2019-03-23T03:21:31.570Z,1009.58
2019-03-23T03:22:31.591Z,1009.59
2019-03-23T03:23:31.611Z,1009.58
2019-03-23T03:24:31.631Z,1009.61
2019-03-23T03:25:31.651Z,1009.63
2019-03-23T03:26:31.675Z,1009.66
2019-03-23T03:27:31.692Z,1009.64
2019-03-23T03:28:31.712Z,1009.68
2019-03-23T03:29:31.732Z,1009.67
2019-03-23T03:30:31.754Z,1009.67
2019-03-23T03:31:31.773Z,1009.69
2019-03-23T03:32:31.818Z,1009.76
2019-03-23T03:33:31.820Z,1009.74
2019-03-23T03:34:31.836Z,1009.77
2019-03-23T03:35:31.857Z,1009.82
2019-03-23T03:36:31.873Z,1009.79
2019-03-23T03:37:31.898Z,1009.81
2019-03-23T03:38:31.917Z,1009.84
2019-03-23T03:39:31.936Z,1009.86
2019-03-23T03:40:31.955Z,1009.87
2019-03-23T03:41:31.974Z,1009.86
2019-03-23T03:42:31.995Z,1009.88
2019-03-23T03:43:32.017Z,1009.88
2019-03-23T03:44:32.035Z,1009.88
2019-03-23T03:45:32.055Z,1009.84
2019-03-23T03:46:32.085Z,1009.87
2019-03-23T03:47:32.110Z,1009.84
2019-03-23T03:48:32.118Z,1009.88
2019-03-23T03:49:32.137Z,1009.89
2019-03-23T03:50:32.157Z,1009.86
2019-03-23T03:51:32.177Z,1009.88
2019-03-23T03:52:32.196Z,1009.92
2019-03-23T03:53:32.215Z,1009.9
2019-03-23T03:54:32.237Z,1009.94
2019-03-23T03:55:32.276Z,1009.96
2019-03-23T03:56:32.276Z,1009.97
2019-03-23T03:57:32.297Z,1009.98
2019-03-23T03:58:32.317Z,1009.96
2019-03-23T03:59:32.339Z,1009.97
2019-03-23T04:00:32.357Z,1009.97
2019-03-23T04:01:32.379Z,1009.96
2019-03-23T04:02:32.412Z,1009.96
2019-03-23T04:03:32.418Z,1009.95
2019-03-23T04:04:32.439Z,1009.95
2019-03-23T04:05:32.459Z,1009.9
2019-03-23T04:06:32.482Z,1009.92
2019-03-23T04:07:32.499Z,1009.95
2019-03-23T04:08:32.518Z,1009.98
2019-03-23T04:09:32.538Z,1009.93
2019-03-23T04:10:32.558Z,1009.93
2019-03-23T04:11:32.578Z,1009.91
2019-03-23T04:12:32.599Z,1009.95
2019-03-23T04:13:32.620Z,1009.97
2019-03-23T04:14:32.640Z,1010.01
2019-03-23T04:15:32.658Z,1010
2019-03-23T04:16:32.679Z,1010
2019-03-23T04:17:32.704Z,1010.01
2019-03-23T04:18:32.719Z,1010.04
2019-03-23T04:19:32.739Z,1010.04
2019-03-23T04:20:32.765Z,1010.08
2019-03-23T04:21:32.780Z,1010.09
2019-03-23T04:22:32.800Z,1010.14
2019-03-23T04:23:32.820Z,1010.18
2019-03-23T04:24:32.840Z,1010.22
2019-03-23T04:25:32.864Z,1010.26
2019-03-23T04:26:32.882Z,1010.24
2019-03-23T04:27:32.904Z,1010.24
2019-03-23T04:28:32.933Z,1010.28
2019-03-23T04:29:32.940Z,1010.32
2019-03-23T04:30:32.961Z,1010.29
2019-03-23T04:31:33.004Z,1010.34
2019-03-23T04:32:32.999Z,1010.33
2019-03-23T04:33:33.020Z,1010.31
2019-03-23T04:34:33.042Z,1010.32
2019-03-23T04:35:33.061Z,1010.29
2019-03-23T04:36:33.080Z,1010.29
2019-03-23T04:37:33.101Z,1010.28
2019-03-23T04:38:33.120Z,1010.32
2019-03-23T04:39:33.139Z,1010.38
2019-03-23T04:40:33.163Z,1010.34
2019-03-23T04:41:33.182Z,1010.39
2019-03-23T04:42:33.201Z,1010.4
2019-03-23T04:43:33.218Z,1010.46
2019-03-23T04:44:33.240Z,1010.48
2019-03-23T04:45:33.263Z,1010.48
2019-03-23T04:46:33.279Z,1010.51
2019-03-23T04:47:33.300Z,1010.5
2019-03-23T04:48:33.319Z,1010.6
2019-03-23T04:49:33.339Z,1010.54
2019-03-23T04:50:33.359Z,1010.57
2019-03-23T04:51:33.379Z,1010.58
2019-03-23T04:52:33.401Z,1010.56
2019-03-23T04:53:33.420Z,1010.62
2019-03-23T04:54:33.438Z,1010.62
2019-03-23T04:55:33.458Z,1010.65
2019-03-23T04:56:33.478Z,1010.65
2019-03-23T04:57:33.499Z,1010.72
2019-03-23T04:58:33.518Z,1010.73
2019-03-23T04:59:33.538Z,1010.72
2019-03-23T05:00:33.559Z,1010.74
2019-03-23T05:01:33.576Z,1010.73
2019-03-23T05:02:33.597Z,1010.74
2019-03-23T05:03:33.618Z,1010.75
2019-03-23T05:04:33.638Z,1010.79
2019-03-23T05:05:33.656Z,1010.76
2019-03-23T05:06:33.676Z,1010.78
2019-03-23T05:07:33.699Z,1010.81
2019-03-23T05:08:33.880Z,1010.83
2019-03-23T05:09:33.737Z,1010.81
2019-03-23T05:10:33.755Z,1010.85
2019-03-23T05:11:33.777Z,1010.84
2019-03-23T05:12:33.795Z,1010.86
2019-03-23T05:13:33.816Z,1010.83
2019-03-23T05:14:33.836Z,1010.81
2019-03-23T05:15:33.855Z,1010.82
2019-03-23T05:16:33.878Z,1010.82
2019-03-23T05:17:33.895Z,1010.76
2019-03-23T05:18:33.915Z,1010.78
2019-03-23T05:19:33.935Z,1010.78
2019-03-23T05:20:33.955Z,1010.78
2019-03-23T05:21:33.974Z,1010.79
2019-03-23T05:22:33.995Z,1010.8
2019-03-23T05:23:34.018Z,1010.84
2019-03-23T05:24:34.035Z,1010.84
2019-03-23T05:25:34.055Z,1010.88
2019-03-23T05:26:34.074Z,1010.81
2019-03-23T05:27:34.094Z,1010.87
2019-03-23T05:28:34.113Z,1010.88
2019-03-23T05:29:34.134Z,1010.94
2019-03-23T05:30:34.154Z,1010.93
2019-03-23T05:31:34.175Z,1010.99
2019-03-23T05:32:34.193Z,1011.05
2019-03-23T05:33:34.218Z,1011.06
2019-03-23T05:34:34.232Z,1011.09
2019-03-23T05:35:34.255Z,1011.11
2019-03-23T05:36:34.270Z,1011.1
2019-03-23T05:37:34.292Z,1011.13
2019-03-23T05:38:43.776Z,1011.16
2019-03-23T05:39:34.331Z,1011.16
2019-03-23T05:40:34.352Z,1011.18
2019-03-23T05:41:34.373Z,1011.22
2019-03-23T05:42:34.393Z,1011.24
2019-03-23T05:43:34.411Z,1011.25
2019-03-23T05:44:34.475Z,1011.32
2019-03-23T05:45:34.449Z,1011.35
2019-03-23T05:46:34.472Z,1011.35
2019-03-23T05:47:34.491Z,1011.39
2019-03-23T05:48:34.512Z,1011.37
2019-03-23T05:49:34.531Z,1011.44
2019-03-23T05:50:34.550Z,1011.41
2019-03-23T05:51:34.570Z,1011.44
2019-03-23T05:52:34.590Z,1011.45
2019-03-23T05:53:34.610Z,1011.48
2019-03-23T05:54:34.629Z,1011.45
2019-03-23T05:55:34.650Z,1011.5
2019-03-23T05:56:34.670Z,1011.52
2019-03-23T05:57:34.691Z,1011.5
2019-03-23T05:58:34.710Z,1011.56
2019-03-23T05:59:34.731Z,1011.53
2019-03-23T06:00:34.752Z,1011.57
2019-03-23T06:01:34.770Z,1011.57
2019-03-23T06:02:34.793Z,1011.62
2019-03-23T06:03:34.811Z,1011.62
2019-03-23T06:04:34.828Z,1011.57
2019-03-23T06:05:34.849Z,1011.61
2019-03-23T06:06:34.871Z,1011.59
2019-03-23T06:07:34.891Z,1011.58
2019-03-23T06:08:34.907Z,1011.57
2019-03-23T06:09:34.931Z,1011.59
2019-03-23T06:10:34.947Z,1011.56
2019-03-23T06:11:34.967Z,1011.56
2019-03-23T06:12:34.986Z,1011.52
2019-03-23T06:13:35.009Z,1011.56
2019-03-23T06:14:35.026Z,1011.55
2019-03-23T06:15:35.047Z,1011.57
2019-03-23T06:16:35.066Z,1011.58
2019-03-23T06:17:35.088Z,1011.56
2019-03-23T06:18:35.106Z,1011.58
2019-03-23T06:19:35.124Z,1011.63
2019-03-23T06:20:35.146Z,1011.65
2019-03-23T06:21:35.165Z,1011.73
2019-03-23T06:22:35.185Z,1011.66
2019-03-23T06:23:35.205Z,1011.68
2019-03-23T06:24:35.225Z,1011.69
2019-03-23T06:25:35.246Z,1011.69
2019-03-23T06:26:35.264Z,1011.67
2019-03-23T06:27:35.285Z,1011.65
2019-03-23T06:28:35.303Z,1011.68
2019-03-23T06:29:35.325Z,1011.68
2019-03-23T06:30:35.343Z,1011.64
2019-03-23T06:31:35.364Z,1011.68
2019-03-23T06:32:35.385Z,1011.72
2019-03-23T06:33:35.404Z,1011.71
2019-03-23T06:34:35.423Z,1011.73
2019-03-23T06:35:35.445Z,1011.72
2019-03-23T06:36:35.467Z,1011.71
2019-03-23T06:37:35.483Z,1011.67
2019-03-23T06:38:35.503Z,1011.7
2019-03-23T06:39:35.523Z,1011.72
2019-03-23T06:40:35.542Z,1011.72
2019-03-23T06:41:35.563Z,1011.75
2019-03-23T06:42:35.583Z,1011.73
2019-03-23T06:43:35.601Z,1011.76
2019-03-23T06:44:35.622Z,1011.81
2019-03-23T06:45:35.643Z,1011.78
2019-03-23T06:46:35.665Z,1011.8
2019-03-23T06:47:35.683Z,1011.83
2019-03-23T06:48:35.701Z,1011.83
2019-03-23T06:49:35.725Z,1011.82
2019-03-23T06:50:35.742Z,1011.84
2019-03-23T06:51:35.761Z,1011.83
2019-03-23T06:52:35.781Z,1011.9
2019-03-23T06:53:35.801Z,1011.92
2019-03-23T06:54:35.821Z,1011.95
2019-03-23T06:55:35.840Z,1011.89
2019-03-23T06:56:35.862Z,1011.92
2019-03-23T06:57:35.883Z,1011.93
2019-03-23T06:58:35.900Z,1011.98
2019-03-23T06:59:35.921Z,1011.94
2019-03-23T07:00:35.940Z,1011.95
2019-03-23T07:01:35.961Z,1011.94
2019-03-23T07:02:35.980Z,1011.98
2019-03-23T07:03:36.002Z,1012.02
2019-03-23T07:04:36.022Z,1011.98
2019-03-23T07:05:36.041Z,1012.01
2019-03-23T07:06:36.060Z,1012.03
2019-03-23T07:07:36.080Z,1012.03
2019-03-23T07:08:36.100Z,1012.09
2019-03-23T07:09:36.118Z,1012.08
2019-03-23T07:10:36.139Z,1012.03
2019-03-23T07:11:36.260Z,1012.05
2019-03-23T07:12:36.181Z,1012.04
2019-03-23T07:13:36.199Z,1012.03
2019-03-23T07:14:36.220Z,1012.06
2019-03-23T07:15:36.238Z,1012.07
2019-03-23T07:16:36.259Z,1012.08
2019-03-23T07:17:36.279Z,1012.1
2019-03-23T07:18:36.297Z,1012.07
2019-03-23T07:19:36.319Z,1012.08
2019-03-23T07:20:36.338Z,1012.07
2019-03-23T07:21:36.358Z,1012.1
2019-03-23T07:22:36.377Z,1012.11
2019-03-23T07:23:36.398Z,1012.12
2019-03-23T07:24:36.418Z,1012.18
2019-03-23T07:25:36.440Z,1012.16
2019-03-23T07:26:36.456Z,1012.23
2019-03-23T07:27:36.477Z,1012.24
2019-03-23T07:28:36.500Z,1012.24
2019-03-23T07:29:36.518Z,1012.26
2019-03-23T07:30:36.537Z,1012.31
2019-03-23T07:31:36.556Z,1012.34
2019-03-23T07:32:36.576Z,1012.33
2019-03-23T07:33:36.598Z,1012.35
2019-03-23T07:34:36.618Z,1012.36
2019-03-23T07:35:36.640Z,1012.34
2019-03-23T07:36:36.655Z,1012.39
2019-03-23T07:37:36.675Z,1012.35
2019-03-23T07:38:36.695Z,1012.34
2019-03-23T07:39:36.715Z,1012.34
2019-03-23T07:40:36.737Z,1012.34
2019-03-23T07:41:36.755Z,1012.36
2019-03-23T07:42:36.774Z,1012.39
2019-03-23T07:43:36.794Z,1012.34
2019-03-23T07:44:36.815Z,1012.38
2019-03-23T07:45:36.834Z,1012.41
2019-03-23T07:46:36.852Z,1012.38
2019-03-23T07:47:36.874Z,1012.41
2019-03-23T07:48:36.893Z,1012.44
2019-03-23T07:49:36.912Z,1012.44
2019-03-23T07:50:36.936Z,1012.46
2019-03-23T07:51:36.952Z,1012.43
2019-03-23T07:52:36.974Z,1012.45
2019-03-23T07:53:36.991Z,1012.47
2019-03-23T07:54:37.012Z,1012.48
2019-03-23T07:55:37.031Z,1012.48
2019-03-23T07:56:37.056Z,1012.53
2019-03-23T07:57:37.070Z,1012.54
2019-03-23T07:58:37.090Z,1012.51
2019-03-23T07:59:37.109Z,1012.56
2019-03-23T08:00:37.129Z,1012.51
2019-03-23T08:01:37.148Z,1012.53
2019-03-23T08:02:37.170Z,1012.56
2019-03-23T08:03:37.188Z,1012.53
2019-03-23T08:04:37.208Z,1012.6
2019-03-23T08:05:37.230Z,1012.59
2019-03-23T08:06:37.248Z,1012.59
2019-03-23T08:07:37.270Z,1012.57
2019-03-23T08:08:37.286Z,1012.64
2019-03-23T08:09:38.079Z,1012.62
2019-03-23T08:10:37.377Z,1012.57
2019-03-23T08:11:37.345Z,1012.54
2019-03-23T08:12:37.366Z,1012.59
2019-03-23T08:13:37.385Z,1012.55
2019-03-23T08:14:37.414Z,1012.53
2019-03-23T08:15:37.425Z,1012.49
2019-03-23T08:16:37.445Z,1012.48
2019-03-23T08:17:37.465Z,1012.52
2019-03-23T08:18:37.486Z,1012.53
2019-03-23T08:19:37.503Z,1012.49
2019-03-23T08:20:37.525Z,1012.52
2019-03-23T08:21:37.544Z,1012.52
2019-03-23T08:22:37.563Z,1012.5
2019-03-23T08:23:37.583Z,1012.53
2019-03-23T08:24:37.603Z,1012.53
2019-03-23T08:25:37.623Z,1012.59
2019-03-23T08:26:37.641Z,1012.63
2019-03-23T08:27:37.663Z,1012.58
2019-03-23T08:28:37.681Z,1012.64
2019-03-23T08:29:37.702Z,1012.59
2019-03-23T08:30:37.721Z,1012.59
2019-03-23T08:31:37.741Z,1012.59
2019-03-23T08:32:37.762Z,1012.59
2019-03-23T08:33:37.779Z,1012.57
2019-03-23T08:34:37.802Z,1012.58
2019-03-23T08:35:37.824Z,1012.61
2019-03-23T08:36:37.844Z,1012.59
2019-03-23T08:37:37.858Z,1012.61
2019-03-23T08:38:37.880Z,1012.6
2019-03-23T08:39:47.865Z,1012.57
2019-03-23T08:40:37.917Z,1012.57
2019-03-23T08:41:37.938Z,1012.55
2019-03-23T08:42:37.957Z,1012.53
2019-03-23T08:43:37.978Z,1012.54
2019-03-23T08:44:37.997Z,1012.49
2019-03-23T08:45:38.019Z,1012.5
2019-03-23T08:46:38.036Z,1012.51
2019-03-23T08:47:38.057Z,1012.51
2019-03-23T08:48:38.077Z,1012.53
2019-03-23T08:49:38.096Z,1012.51
2019-03-23T08:50:38.116Z,1012.5
2019-03-23T08:51:38.135Z,1012.5
2019-03-23T08:52:38.155Z,1012.51
2019-03-23T08:53:38.175Z,1012.49
2019-03-23T08:54:38.195Z,1012.58
2019-03-23T08:55:38.214Z,1012.55
2019-03-23T08:56:38.236Z,1012.56
2019-03-23T08:57:38.257Z,1012.56
2019-03-23T08:58:38.274Z,1012.55
2019-03-23T08:59:38.292Z,1012.51
2019-03-23T09:00:38.312Z,1012.54
2019-03-23T09:01:38.332Z,1012.54
2019-03-23T09:02:38.353Z,1012.55
2019-03-23T09:03:38.378Z,1012.54
2019-03-23T09:04:38.392Z,1012.56
2019-03-23T09:05:38.413Z,1012.56
2019-03-23T09:06:38.432Z,1012.57
2019-03-23T09:07:38.451Z,1012.53
2019-03-23T09:08:38.473Z,1012.54
2019-03-23T09:09:38.491Z,1012.54
2019-03-23T09:10:38.513Z,1012.57
2019-03-23T09:11:38.530Z,1012.6
2019-03-23T09:12:38.551Z,1012.59
2019-03-23T09:13:40.717Z,1012.62
2019-03-23T09:14:38.591Z,1012.66
2019-03-23T09:15:38.615Z,1012.67
2019-03-23T09:16:38.630Z,1012.69
2019-03-23T09:17:38.650Z,1012.7
2019-03-23T09:18:38.669Z,1012.73
2019-03-23T09:19:38.690Z,1012.68
2019-03-23T09:20:38.710Z,1012.73
2019-03-23T09:21:38.779Z,1012.75
2019-03-23T09:22:38.749Z,1012.73
2019-03-23T09:23:38.769Z,1012.77
2019-03-23T09:24:38.789Z,1012.77
2019-03-23T09:25:38.808Z,1012.82
2019-03-23T09:26:38.828Z,1012.82
2019-03-23T09:27:38.849Z,1012.8
2019-03-23T09:28:38.865Z,1012.79
2019-03-23T09:29:38.889Z,1012.78
2019-03-23T09:30:38.907Z,1012.82
2019-03-23T09:31:38.928Z,1012.83
2019-03-23T09:32:38.946Z,1012.91
2019-03-23T09:33:38.967Z,1012.92
2019-03-23T09:34:38.985Z,1012.88
2019-03-23T09:35:39.269Z,1012.91
2019-03-23T09:36:41.275Z,1012.91
2019-03-23T09:37:39.045Z,1012.89
2019-03-23T09:38:39.067Z,1012.97
2019-03-23T09:39:39.084Z,1012.96
2019-03-23T09:40:39.106Z,1012.96
2019-03-23T09:41:39.175Z,1012.96
2019-03-23T09:42:39.151Z,1012.98
2019-03-23T09:43:39.164Z,1012.99
2019-03-23T09:44:39.186Z,1013.01
2019-03-23T09:45:39.206Z,1013.02
2019-03-23T09:46:39.276Z,1012.99
2019-03-23T09:47:39.244Z,1013.02
2019-03-23T09:48:39.263Z,1013.04
2019-03-23T09:49:39.284Z,1013.02
2019-03-23T09:50:39.302Z,1013.08
2019-03-23T09:51:39.323Z,1013.05
2019-03-23T09:52:39.345Z,1013.05
2019-03-23T09:53:39.366Z,1013.09
2019-03-23T09:54:39.382Z,1013.09
2019-03-23T09:55:39.403Z,1013.09
2019-03-23T09:56:39.479Z,1013.07
2019-03-23T09:57:39.441Z,1013.05
2019-03-23T09:58:39.463Z,1013.08
2019-03-23T09:59:39.481Z,1013.1
2019-03-23T10:00:39.502Z,1013.08
2019-03-23T10:01:39.571Z,1013.08
2019-03-23T10:02:39.539Z,1013.09
2019-03-23T10:03:39.562Z,1013.11
2019-03-23T10:04:39.580Z,1013.05
2019-03-23T10:05:39.608Z,1013.11
2019-03-23T10:06:39.670Z,1013.16
2019-03-23T10:07:39.641Z,1013.21
2019-03-23T10:08:39.659Z,1013.22
2019-03-23T10:09:39.678Z,1013.23
2019-03-23T10:10:39.702Z,1013.19
2019-03-23T10:11:39.769Z,1013.2
2019-03-23T10:12:39.738Z,1013.21
2019-03-23T10:13:39.758Z,1013.19
2019-03-23T10:14:39.779Z,1013.22
2019-03-23T10:15:39.798Z,1013.21
2019-03-23T10:16:39.817Z,1013.26
2019-03-23T10:17:39.837Z,1013.25
2019-03-23T10:18:39.859Z,1013.24
2019-03-23T10:19:39.877Z,1013.26
2019-03-23T10:20:39.897Z,1013.29
2019-03-23T10:21:39.918Z,1013.23
2019-03-23T10:22:39.937Z,1013.27
2019-03-23T10:23:39.956Z,1013.23
2019-03-23T10:24:39.975Z,1013.21
2019-03-23T10:25:39.995Z,1013.24
2019-03-23T10:26:40.023Z,1013.19
2019-03-23T10:27:40.035Z,1013.23
2019-03-23T10:28:40.057Z,1013.2
2019-03-23T10:29:40.076Z,1013.2
2019-03-23T10:30:40.094Z,1013.18
2019-03-23T10:31:40.116Z,1013.2
2019-03-23T10:32:40.135Z,1013.14
2019-03-23T10:33:40.159Z,1013.16
2019-03-23T10:34:40.173Z,1013.18
2019-03-23T10:35:40.195Z,1013.15
2019-03-23T10:36:40.214Z,1013.19
2019-03-23T10:37:40.235Z,1013.11
2019-03-23T10:38:40.256Z,1013.15
2019-03-23T10:39:40.275Z,1013.15
2019-03-23T10:40:40.294Z,1013.16
2019-03-23T10:41:40.313Z,1013.18
2019-03-23T10:42:40.350Z,1013.19
2019-03-23T10:43:40.359Z,1013.21
2019-03-23T10:44:40.375Z,1013.25
2019-03-23T10:45:44.196Z,1013.22
2019-03-23T10:46:40.414Z,1013.27
2019-03-23T10:47:40.478Z,1013.25
2019-03-23T10:48:40.453Z,1013.26
2019-03-23T10:49:40.473Z,1013.31
2019-03-23T10:50:40.493Z,1013.35
2019-03-23T10:51:40.514Z,1013.29
2019-03-23T10:52:40.532Z,1013.33
2019-03-23T10:53:40.561Z,1013.32
2019-03-23T10:54:40.573Z,1013.34
2019-03-23T10:55:40.593Z,1013.37
2019-03-23T10:56:40.612Z,1013.36
2019-03-23T10:57:40.632Z,1013.35
2019-03-23T10:58:40.651Z,1013.37
2019-03-23T10:59:40.672Z,1013.38
2019-03-23T11:00:40.691Z,1013.37
2019-03-23T11:01:40.710Z,1013.38
2019-03-23T11:02:40.732Z,1013.41
2019-03-23T11:03:40.750Z,1013.4
2019-03-23T11:04:40.772Z,1013.38
2019-03-23T11:05:40.790Z,1013.37
2019-03-23T11:06:40.811Z,1013.33
2019-03-23T11:07:40.831Z,1013.39
2019-03-23T11:08:40.850Z,1013.4
2019-03-23T11:09:40.871Z,1013.37
2019-03-23T11:10:41.655Z,1013.42
2019-03-23T11:11:40.914Z,1013.44
2019-03-23T11:12:40.930Z,1013.45
2019-03-23T11:13:40.950Z,1013.43
2019-03-23T11:14:40.972Z,1013.4
2019-03-23T11:15:40.990Z,1013.39
2019-03-23T11:16:41.009Z,1013.38
2019-03-23T11:17:41.031Z,1013.41
2019-03-23T11:18:41.048Z,1013.44
2019-03-23T11:19:41.068Z,1013.43
2019-03-23T11:20:41.089Z,1013.47
2019-03-23T11:21:41.107Z,1013.5
2019-03-23T11:22:41.128Z,1013.45
2019-03-23T11:23:41.148Z,1013.47
2019-03-23T11:24:41.168Z,1013.48
2019-03-23T11:25:41.186Z,1013.51
2019-03-23T11:26:41.207Z,1013.49
2019-03-23T11:27:41.229Z,1013.51
2019-03-23T11:28:41.248Z,1013.52
2019-03-23T11:29:41.268Z,1013.57
2019-03-23T11:30:41.287Z,1013.53
2019-03-23T11:31:41.308Z,1013.49
2019-03-23T11:32:41.326Z,1013.48
2019-03-23T11:33:41.347Z,1013.48
2019-03-23T11:34:41.367Z,1013.52
2019-03-23T11:35:41.387Z,1013.55
2019-03-23T11:36:41.407Z,1013.53
2019-03-23T11:37:41.625Z,1013.53
2019-03-23T11:38:41.445Z,1013.53
2019-03-23T11:39:41.469Z,1013.5
2019-03-23T11:40:51.732Z,1013.53
2019-03-23T11:41:41.508Z,1013.5
2019-03-23T11:42:49.540Z,1013.5
2019-03-23T11:43:41.548Z,1013.53
2019-03-23T11:44:41.586Z,1013.53
2019-03-23T11:45:41.588Z,1013.56
2019-03-23T11:46:41.608Z,1013.58
2019-03-23T11:47:41.627Z,1013.56
2019-03-23T11:48:41.652Z,1013.53
2019-03-23T11:49:41.668Z,1013.6
2019-03-23T11:50:41.688Z,1013.64
2019-03-23T11:51:41.706Z,1013.6
2019-03-23T11:52:41.727Z,1013.62
2019-03-23T11:53:41.749Z,1013.6
2019-03-23T11:54:41.767Z,1013.59
2019-03-23T11:55:41.788Z,1013.62
2019-03-23T11:56:41.808Z,1013.59
2019-03-23T11:57:41.830Z,1013.65
2019-03-23T11:58:41.849Z,1013.64
2019-03-23T11:59:41.869Z,1013.61
2019-03-23T12:00:41.888Z,1013.62
2019-03-23T12:01:51.248Z,1013.67
2019-03-23T12:02:41.931Z,1013.7
2019-03-23T12:03:41.953Z,1013.69
2019-03-23T12:04:41.970Z,1013.65
2019-03-23T12:05:41.991Z,1013.61
2019-03-23T12:06:42.011Z,1013.61
2019-03-23T12:07:42.081Z,1013.58